Time;durP1;ratioP1;P1;durP2;ratioP2;P2;SDS_P1;SDS_P2;PMS_P1;PMS_P2;Temp;Humidity;BMP_temperature;BMP_pressure;BME280_temperature;BME280_humidity;BME280_pressure;Samples;Min_cycle;Max_cycle;Signal;HPM_P1;HPM_P2
2021/05/11 00:05:15;;;;;;;;;;;;;;;18.08;40.66;97855.82;1818056;77;20720;-86
2021/05/11 00:39:12;;;;;;;;;;;;;;;18.05;41.25;97824.89;1790500;79;20273;-86
2021/05/11 00:47:07;;;;;;;;;;;;;;;18.07;41.40;97818.91;1817262;77;20339;-86
2021/05/11 01:19:11;;;;;;;;;;;;;;;18.31;41.49;97790.54;1817873;77;20288;-86
2021/05/11 02:25:43;;;;;;;;;;;;;;;18.25;42.21;97725.00;1818977;77;20308;-86
2021/05/11 04:39:25;;;;;;;;;;;;;;;19.64;43.26;97660.66;1870596;76;20809;-86
2021/05/11 05:06:23;;;;;;;;;;;;;;;20.88;42.12;97636.58;1817566;77;20274;-87
2021/05/11 06:25:44;;;;;;;;;;;;;;;22.00;39.93;97641.35;1875661;76;20270;-87
2021/05/11 06:39:02;;;;;;;;;;;;;;;22.31;39.68;97622.22;1813646;77;20244;-87
2021/05/11 07:32:12;;;;;;;;;;;;;;;24.07;38.23;97612.47;1876262;75;20392;-87
2021/05/11 08:33:56;;;;;;;;;;;;;;;25.90;34.82;97601.09;1822228;77;20280;-87
2021/05/11 08:36:40;;;;;;;;;;;;;;;25.99;34.61;97602.41;1818819;77;20257;-87
2021/05/11 11:08:46;;;;;;;;;;;;;;;28.23;29.88;97589.64;1866440;75;20722;-87
2021/05/11 12:21:00;;;;;;;;;;;;;;;29.32;27.83;97524.69;1793529;78;20744;-88
2021/05/11 12:23:47;;;;;;;;;;;;;;;29.39;27.93;97521.30;1817759;76;20792;-89
2021/05/11 12:34:35;;;;;;;;;;;;;;;29.19;27.08;97523.66;1878037;75;20704;-88
2021/05/11 12:48:11;;;;;;;;;;;;;;;29.26;26.55;97510.30;1806825;78;20304;-89
2021/05/11 15:46:41;;;;;;;;;;;;;;;28.66;25.00;97349.95;1875119;75;20201;-89
2021/05/11 16:34:51;;;;;;;;;;;;;;;27.59;26.47;97337.20;1778685;79;20345;-89
2021/05/11 17:20:35;;;;;;;;;;;;;;;26.57;27.94;97363.30;1841920;76;20760;-89
2021/05/11 18:45:12;;;;;;;;;;;;;;;23.69;30.74;97365.27;1841066;76;20229;-88
2021/05/11 18:47:39;;;;;;;;;;;;;;;23.52;30.87;97364.66;1807688;78;21370;-89
2021/05/11 18:50:06;;;;;;;;;;;;;;;23.38;31.09;97359.89;1799837;79;25946;-89
2021/05/11 18:52:33;;;;;;;;;;;;;;;23.30;31.33;97362.80;1806746;79;24414;-89
2021/05/11 18:55:00;;;;;;;;;;;;;;;23.18;31.48;97370.69;1804642;79;20253;-89
2021/05/11 18:57:26;;;;;;;;;;;;;;;23.13;31.66;97363.01;1801475;79;24181;-89
2021/05/11 18:59:52;;;;;;;;;;;;;;;23.12;31.76;97366.20;1809984;79;22300;-89
2021/05/11 19:02:18;;;;;;;;;;;;;;;23.09;31.87;97369.27;1800056;79;26005;-89
2021/05/11 19:04:44;;;;;;;;;;;;;;;23.00;32.01;97373.73;1807366;79;20289;-89
2021/05/11 19:07:12;;;;;;;;;;;;;;;22.90;32.18;97375.52;1804482;79;20552;-89
2021/05/11 19:09:38;;;;;;;;;;;;;;;22.78;32.30;97374.02;1809495;79;24406;-89
2021/05/11 19:12:05;;;;;;;;;;;;;;;22.73;32.45;97372.48;1808293;79;21520;-89
2021/05/11 19:14:33;;;;;;;;;;;;;;;22.61;32.59;97375.45;1804478;79;26093;-89
2021/05/11 19:16:59;;;;;;;;;;;;;;;22.42;32.83;97383.78;1804381;79;24484;-89
2021/05/11 19:19:27;;;;;;;;;;;;;;;22.31;33.09;97386.29;1805967;79;20191;-89
2021/05/11 19:21:53;;;;;;;;;;;;;;;22.15;33.30;97383.50;1807945;78;23661;-88
2021/05/11 19:24:22;;;;;;;;;;;;;;;22.03;33.50;97387.32;1780435;79;22325;-89
2021/05/11 19:26:48;;;;;;;;;;;;;;;21.93;33.72;97383.39;1800309;79;26005;-89
2021/05/11 19:29:14;;;;;;;;;;;;;;;21.88;33.91;97383.98;1789172;79;24503;-89
2021/05/11 19:31:46;;;;;;;;;;;;;;;21.91;34.01;97383.59;1806076;79;20241;-89
2021/05/11 19:34:13;;;;;;;;;;;;;;;21.87;34.09;97389.03;1810467;79;24322;-89
2021/05/11 19:36:39;;;;;;;;;;;;;;;21.82;34.19;97383.45;1814412;79;21490;-88
2021/05/11 19:39:07;;;;;;;;;;;;;;;21.77;34.30;97386.42;1801790;79;25441;-89
2021/05/11 19:41:33;;;;;;;;;;;;;;;21.66;34.37;97381.19;1807308;79;24500;-89
2021/05/11 19:44:00;;;;;;;;;;;;;;;21.54;34.54;97382.31;1798118;79;20801;-89
2021/05/11 19:46:26;;;;;;;;;;;;;;;21.41;34.71;97382.27;1809406;78;24505;-89
2021/05/11 19:48:53;;;;;;;;;;;;;;;21.26;34.88;97386.44;1812451;79;22186;-89
2021/05/11 19:51:19;;;;;;;;;;;;;;;21.16;35.06;97381.19;1805322;79;26027;-89
2021/05/11 19:53:46;;;;;;;;;;;;;;;21.10;35.20;97381.44;1810017;79;24509;-89
2021/05/11 19:56:12;;;;;;;;;;;;;;;21.05;35.38;97379.89;1803417;79;20193;-89
2021/05/11 19:58:38;;;;;;;;;;;;;;;21.03;35.51;97386.41;1806650;79;24379;-89
2021/05/11 20:01:04;;;;;;;;;;;;;;;20.99;35.67;97387.33;1803510;79;21952;-89
2021/05/11 20:03:30;;;;;;;;;;;;;;;20.97;35.81;97388.53;1801447;79;20861;-89
2021/05/11 20:05:57;;;;;;;;;;;;;;;20.88;35.93;97387.37;1797894;79;24435;-89
2021/05/11 20:08:23;;;;;;;;;;;;;;;20.90;36.01;97387.16;1811506;79;20675;-88
2021/05/11 20:10:49;;;;;;;;;;;;;;;20.86;36.07;97385.41;1805257;79;24381;-89
2021/05/11 20:13:17;;;;;;;;;;;;;;;20.84;36.13;97384.78;1794223;79;20242;-88
2021/05/11 20:15:43;;;;;;;;;;;;;;;20.83;36.22;97388.98;1800511;79;25918;-88
2021/05/11 20:18:12;;;;;;;;;;;;;;;20.77;36.27;97383.12;1800677;79;20392;-89
2021/05/11 20:20:40;;;;;;;;;;;;;;;20.78;36.29;97382.11;1810272;79;20555;-88
2021/05/11 20:23:07;;;;;;;;;;;;;;;20.71;36.34;97378.08;1803558;79;24356;-89
2021/05/11 20:25:35;;;;;;;;;;;;;;;20.74;36.44;97380.33;1810562;79;21948;-89
2021/05/11 20:28:01;;;;;;;;;;;;;;;20.72;36.49;97380.23;1796354;79;26105;-89
2021/05/11 20:30:27;;;;;;;;;;;;;;;20.74;36.54;97379.00;1804617;79;24555;-88
2021/05/11 20:32:54;;;;;;;;;;;;;;;20.73;36.55;97376.03;1804350;79;20217;-88
2021/05/11 20:35:35;;;;;;;;;;;;;;;20.73;36.57;97373.91;1803726;79;24486;-89
2021/05/11 20:38:02;;;;;;;;;;;;;;;20.70;36.67;97371.12;1807971;79;22791;-88
2021/05/11 20:40:29;;;;;;;;;;;;;;;20.64;36.77;97359.94;1812275;79;26019;-88
2021/05/11 20:42:58;;;;;;;;;;;;;;;20.63;36.87;97360.95;1802447;79;24408;-88
2021/05/11 20:45:25;;;;;;;;;;;;;;;20.64;36.93;97363.09;1799636;78;20310;-88
2021/05/11 20:47:57;;;;;;;;;;;;;;;20.55;37.02;97359.80;1799269;78;24618;-89
2021/05/11 20:50:24;;;;;;;;;;;;;;;20.40;37.12;97360.42;1799242;78;21972;-89
2021/05/11 20:52:57;;;;;;;;;;;;;;;20.37;37.28;97358.96;1808312;78;26037;-90
2021/05/11 20:55:24;;;;;;;;;;;;;;;20.27;37.37;97359.79;1803428;78;24431;-90
2021/05/11 20:57:50;;;;;;;;;;;;;;;20.23;37.47;97357.72;1809575;78;20233;-89
2021/05/11 21:00:25;;;;;;;;;;;;;;;20.16;37.46;97362.16;1810746;78;25049;-89
2021/05/11 21:02:52;;;;;;;;;;;;;;;20.18;37.56;97362.80;1817020;78;21957;-89
2021/05/11 21:05:19;;;;;;;;;;;;;;;20.17;37.69;97356.66;1805728;78;25901;-90
2021/05/11 21:07:51;;;;;;;;;;;;;;;20.15;37.77;97355.19;1804255;78;24546;-89
2021/05/11 21:10:18;;;;;;;;;;;;;;;20.11;37.84;97356.09;1804223;78;20228;-89
2021/05/11 21:12:50;;;;;;;;;;;;;;;20.00;37.98;97349.98;1794645;78;24186;-89
2021/05/11 21:15:16;;;;;;;;;;;;;;;19.89;38.18;97347.86;1804707;78;22037;-89
2021/05/11 21:17:42;;;;;;;;;;;;;;;19.75;38.33;97341.59;1807817;78;26103;-89
2021/05/11 21:20:10;;;;;;;;;;;;;;;19.66;38.43;97340.60;1796004;78;24414;-89
2021/05/11 21:22:42;;;;;;;;;;;;;;;19.55;38.60;97344.59;1806301;78;20559;-88
2021/05/11 21:25:10;;;;;;;;;;;;;;;19.45;38.74;97343.59;1800281;78;23882;-88
2021/05/11 21:27:39;;;;;;;;;;;;;;;19.44;38.89;97341.08;1798733;78;22141;-88
2021/05/11 21:30:12;;;;;;;;;;;;;;;19.36;39.11;97338.56;1799006;77;25897;-89
2021/05/11 21:32:39;;;;;;;;;;;;;;;19.32;39.32;97335.95;1807791;78;24413;-88
2021/05/11 21:35:05;;;;;;;;;;;;;;;19.27;39.45;97335.20;1803911;78;20259;-88
2021/05/11 21:37:33;;;;;;;;;;;;;;;19.26;39.63;97333.55;1802031;78;24397;-88
2021/05/11 21:40:03;;;;;;;;;;;;;;;19.37;39.72;97341.01;1795219;79;23036;-88
2021/05/11 21:42:32;;;;;;;;;;;;;;;19.49;39.74;97344.84;1792231;78;26133;-88
2021/05/11 21:44:58;;;;;;;;;;;;;;;19.42;39.75;97338.61;1802771;78;24417;-88
2021/05/11 21:47:25;;;;;;;;;;;;;;;19.42;39.73;97343.91;1806935;79;20305;-88
2021/05/11 21:49:52;;;;;;;;;;;;;;;19.49;39.78;97344.84;1805964;79;24574;-89
2021/05/11 21:52:18;;;;;;;;;;;;;;;19.57;39.76;97342.08;1807994;79;21977;-89
2021/05/11 21:54:44;;;;;;;;;;;;;;;19.51;39.78;97339.35;1801653;79;26003;-88
2021/05/11 21:57:10;;;;;;;;;;;;;;;19.50;39.77;97343.01;1810309;79;24516;-88
2021/05/11 22:02:11;;;;;;;;;;;;;;;19.52;39.90;97337.84;1804302;79;24418;-88
2021/05/11 22:04:37;;;;;;;;;;;;;;;19.55;39.94;97341.94;1812368;79;20260;-88
2021/05/11 22:07:09;;;;;;;;;;;;;;;19.54;39.95;97341.11;1805875;79;20829;-88
2021/05/11 22:09:35;;;;;;;;;;;;;;;19.50;40.00;97339.86;1805717;79;24408;-88
2021/05/11 22:12:05;;;;;;;;;;;;;;;19.48;40.06;97339.72;1811533;79;20277;-87
2021/05/11 22:14:34;;;;;;;;;;;;;;;19.45;40.10;97338.78;1803861;78;25111;-88
2021/05/11 22:17:00;;;;;;;;;;;;;;;19.38;40.08;97340.00;1806113;79;21998;-88
2021/05/11 22:19:26;;;;;;;;;;;;;;;19.36;40.09;97338.06;1809453;79;25937;-88
2021/05/11 22:21:52;;;;;;;;;;;;;;;19.40;40.14;97337.99;1806738;79;20799;-88
2021/05/11 22:24:18;;;;;;;;;;;;;;;19.40;40.15;97335.84;1805983;79;20280;-88
2021/05/11 22:26:45;;;;;;;;;;;;;;;19.35;40.18;97339.06;1808177;79;20233;-88
2021/05/11 22:29:11;;;;;;;;;;;;;;;19.31;40.22;97333.80;1803894;79;21999;-87
2021/05/11 22:31:38;;;;;;;;;;;;;;;19.23;40.28;97337.91;1802750;79;25993;-88
2021/05/11 22:34:05;;;;;;;;;;;;;;;19.20;40.42;97330.34;1807619;79;24390;-88
2021/05/11 22:36:33;;;;;;;;;;;;;;;19.12;40.46;97333.09;1810473;79;20201;-87
2021/05/11 22:39:00;;;;;;;;;;;;;;;19.10;40.54;97326.65;1803777;79;24477;-88
2021/05/11 22:41:26;;;;;;;;;;;;;;;19.06;40.61;97333.34;1809132;78;21930;-88
2021/05/11 22:43:58;;;;;;;;;;;;;;;19.06;40.71;97326.71;1797343;78;25944;-89
2021/05/11 22:46:21;;;;;;;;;;;;;;;19.03;40.71;97330.26;1807608;79;24489;-89
2021/05/11 22:48:46;;;;;;;;;;;;;;;19.07;40.80;97334.17;1805843;79;20174;-88
2021/05/11 22:51:12;;;;;;;;;;;;;;;19.12;40.89;97335.75;1806132;79;20281;-89
2021/05/11 22:53:38;;;;;;;;;;;;;;;19.12;40.99;97331.27;1780011;79;21025;-88
2021/05/11 22:56:05;;;;;;;;;;;;;;;19.10;41.12;97329.80;1797165;79;26023;-89
2021/05/11 22:58:37;;;;;;;;;;;;;;;19.04;41.17;97338.50;1796180;79;25145;-89
2021/05/11 23:01:20;;;;;;;;;;;;;;;19.02;41.23;97333.91;1801728;79;20260;-89
2021/05/11 23:03:46;;;;;;;;;;;;;;;18.92;41.29;97328.09;1806626;79;24820;-89
2021/05/11 23:06:15;;;;;;;;;;;;;;;18.87;41.35;97323.85;1801564;79;20324;-88
2021/05/11 23:08:41;;;;;;;;;;;;;;;18.86;41.39;97317.72;1805676;79;26012;-88
2021/05/11 23:11:08;;;;;;;;;;;;;;;18.83;41.50;97317.25;1803629;79;24371;-89
2021/05/11 23:13:34;;;;;;;;;;;;;;;18.78;41.51;97315.16;1802444;79;20206;-89
2021/05/11 23:16:01;;;;;;;;;;;;;;;18.80;41.58;97315.31;1806629;79;24555;-88
2021/05/11 23:18:33;;;;;;;;;;;;;;;18.88;41.59;97313.53;1797802;79;22046;-89
2021/05/11 23:20:58;;;;;;;;;;;;;;;18.88;41.66;97311.71;1802636;79;25948;-89
2021/05/11 23:23:28;;;;;;;;;;;;;;;18.90;41.73;97311.53;1797520;79;24682;-89
2021/05/11 23:25:53;;;;;;;;;;;;;;;18.95;41.71;97309.97;1802613;79;20246;-89
2021/05/11 23:28:19;;;;;;;;;;;;;;;19.00;41.70;97309.40;1804160;79;20368;-89
2021/05/11 23:30:47;;;;;;;;;;;;;;;19.05;41.65;97310.98;1806954;79;22075;-89
2021/05/11 23:33:13;;;;;;;;;;;;;;;19.12;41.62;97306.58;1796294;79;25938;-88
2021/05/11 23:35:40;;;;;;;;;;;;;;;19.19;41.60;97303.00;1805936;79;24557;-88
2021/05/11 23:38:06;;;;;;;;;;;;;;;19.23;41.57;97302.10;1806901;79;20277;-89
2021/05/11 23:40:33;;;;;;;;;;;;;;;19.29;41.54;97301.34;1805145;79;20328;-89
2021/05/11 23:42:59;;;;;;;;;;;;;;;19.31;41.53;97302.50;1805941;79;21975;-88
2021/05/11 23:45:25;;;;;;;;;;;;;;;19.31;41.58;97297.19;1802748;77;25909;-89
2021/05/11 23:47:52;;;;;;;;;;;;;;;19.29;41.61;97300.02;1806364;79;24531;-89
2021/05/11 23:50:20;;;;;;;;;;;;;;;19.28;41.59;97298.88;1803888;79;20361;-89
2021/05/11 23:52:49;;;;;;;;;;;;;;;19.27;41.64;97304.69;1809657;79;24189;-89
2021/05/11 23:55:15;;;;;;;;;;;;;;;19.28;41.63;97298.88;1797926;78;22936;-89
2021/05/11 23:57:42;;;;;;;;;;;;;;;19.29;41.66;97302.67;1798859;79;25921;-89
